createdAt,value
2023-01-12T00:00:55.424Z,7.86
2023-01-12T00:01:55.385Z,7.94
2023-01-12T00:02:55.259Z,7.91
2023-01-12T00:03:55.195Z,7.85
2023-01-12T00:04:55.093Z,7.90
2023-01-12T00:05:55.009Z,7.91
2023-01-12T00:06:54.926Z,7.93
2023-01-12T00:07:54.840Z,7.90
2023-01-12T00:08:54.767Z,7.90
2023-01-12T00:09:54.681Z,7.90
2023-01-12T00:10:54.600Z,7.91
2023-01-12T00:11:54.512Z,7.86
2023-01-12T00:12:54.442Z,7.93
2023-01-12T00:13:54.350Z,7.96
2023-01-12T00:14:54.269Z,7.99
2023-01-12T00:15:54.233Z,7.93
2023-01-12T00:16:54.103Z,7.99
2023-01-12T00:17:54.031Z,7.99
2023-01-12T00:18:53.940Z,8.00
2023-01-12T00:19:53.855Z,7.97
2023-01-12T00:20:53.778Z,8.03
2023-01-12T00:21:53.687Z,8.00
2023-01-12T00:22:53.611Z,7.93
2023-01-12T00:23:53.531Z,7.91
2023-01-12T00:24:53.445Z,7.94
2023-01-12T00:25:53.361Z,7.94
2023-01-12T00:26:53.280Z,7.88
2023-01-12T00:27:53.196Z,7.91
2023-01-12T00:28:53.111Z,8.01
2023-01-12T00:29:53.033Z,7.97
2023-01-12T00:30:52.984Z,7.93
2023-01-12T00:31:52.867Z,7.99
2023-01-12T00:32:52.786Z,7.97
2023-01-12T00:33:52.702Z,8.03
2023-01-12T00:34:52.624Z,7.97
2023-01-12T00:35:52.544Z,7.96
2023-01-12T00:36:52.456Z,7.97
2023-01-12T00:37:52.373Z,8.00
2023-01-12T00:38:52.292Z,7.99
2023-01-12T00:40:01.861Z,7.93
2023-01-12T00:40:52.126Z,8.09
2023-01-12T00:41:52.049Z,8.07
2023-01-12T00:42:51.966Z,8.04
2023-01-12T00:43:51.883Z,8.01
2023-01-12T00:44:51.798Z,8.09
2023-01-12T00:45:51.721Z,8.00
2023-01-12T00:46:51.732Z,7.96
2023-01-12T00:47:51.546Z,8.00
2023-01-12T00:48:51.466Z,7.93
2023-01-12T00:49:51.384Z,7.96
2023-01-12T00:50:51.318Z,7.93
2023-01-12T00:51:51.217Z,7.94
2023-01-12T00:52:51.157Z,7.93
2023-01-12T00:53:51.052Z,7.97
2023-01-12T00:54:50.973Z,7.97
2023-01-12T00:55:50.889Z,7.93
2023-01-12T00:56:50.808Z,7.97
2023-01-12T00:57:50.718Z,7.93
2023-01-12T00:58:50.642Z,7.86
2023-01-12T00:59:50.560Z,7.94
2023-01-12T01:00:50.495Z,7.82
2023-01-12T01:01:50.504Z,7.75
2023-01-12T01:02:50.402Z,7.68
2023-01-12T01:03:50.227Z,7.78
2023-01-12T01:04:50.151Z,7.72
2023-01-12T01:05:50.071Z,7.81
2023-01-12T01:06:49.981Z,7.82
2023-01-12T01:07:49.898Z,7.81
2023-01-12T01:08:49.817Z,7.75
2023-01-12T01:09:49.774Z,7.75
2023-01-12T01:10:49.650Z,7.72
2023-01-12T01:11:49.575Z,7.75
2023-01-12T01:12:49.487Z,7.78
2023-01-12T01:13:49.398Z,7.82
2023-01-12T01:14:49.330Z,7.82
2023-01-12T01:15:49.261Z,7.64
2023-01-12T01:16:49.160Z,7.73
2023-01-12T01:17:49.076Z,7.70
2023-01-12T01:18:49.010Z,7.67
2023-01-12T01:19:48.907Z,7.67
2023-01-12T01:20:48.826Z,7.72
2023-01-12T01:21:48.748Z,7.68
2023-01-12T01:22:48.662Z,7.70
2023-01-12T01:23:48.584Z,7.67
2023-01-12T01:24:48.500Z,7.68
2023-01-12T01:25:48.420Z,7.60
2023-01-12T01:26:48.346Z,7.64
2023-01-12T01:27:48.248Z,7.68
2023-01-12T01:28:48.174Z,7.67
2023-01-12T01:29:48.088Z,7.75
2023-01-12T01:30:48.052Z,7.70
2023-01-12T01:31:47.926Z,7.70
2023-01-12T01:32:47.838Z,7.70
2023-01-12T01:33:47.754Z,7.67
2023-01-12T01:34:47.685Z,7.67
2023-01-12T01:35:47.588Z,7.53
2023-01-12T01:36:47.505Z,7.60
2023-01-12T01:37:47.421Z,7.60
2023-01-12T01:38:47.350Z,7.68
2023-01-12T01:39:47.257Z,7.55
2023-01-12T01:40:47.182Z,7.60
2023-01-12T01:41:47.092Z,7.64
2023-01-12T01:42:47.020Z,7.63
2023-01-12T01:43:46.933Z,7.62
2023-01-12T01:44:46.847Z,7.49
2023-01-12T01:45:46.762Z,7.67
2023-01-12T01:46:46.699Z,7.59
2023-01-12T01:47:46.604Z,7.64
2023-01-12T01:48:46.523Z,7.64
2023-01-12T01:49:46.441Z,7.60
2023-01-12T01:50:46.353Z,7.56
2023-01-12T01:51:46.266Z,7.60
2023-01-12T01:52:46.191Z,7.59
2023-01-12T01:53:46.108Z,7.52
2023-01-12T01:54:46.024Z,7.49
2023-01-12T01:55:45.938Z,7.60
2023-01-12T01:56:45.861Z,7.60
2023-01-12T01:57:45.776Z,7.57
2023-01-12T01:58:45.706Z,7.67
2023-01-12T01:59:45.616Z,7.45
2023-01-12T02:00:45.533Z,7.55
2023-01-12T02:01:45.524Z,7.44
2023-01-12T02:02:45.406Z,7.45
2023-01-12T02:03:45.292Z,7.39
2023-01-12T02:04:45.197Z,7.41
2023-01-12T02:05:45.112Z,7.34
2023-01-12T02:06:45.039Z,7.35
2023-01-12T02:07:44.950Z,7.38
2023-01-12T02:08:44.870Z,7.31
2023-01-12T02:09:44.777Z,7.38
2023-01-12T02:10:44.704Z,7.35
2023-01-12T02:11:44.618Z,7.38
2023-01-12T02:12:44.533Z,7.30
2023-01-12T02:13:44.449Z,7.35
2023-01-12T02:14:44.372Z,7.35
2023-01-12T02:15:44.349Z,7.31
2023-01-12T02:16:44.208Z,7.31
2023-01-12T02:17:44.129Z,7.34
2023-01-12T02:18:44.039Z,7.38
2023-01-12T02:19:43.963Z,7.41
2023-01-12T02:20:43.878Z,7.26
2023-01-12T02:21:43.791Z,7.30
2023-01-12T02:22:43.833Z,7.35
2023-01-12T02:23:43.627Z,7.35
2023-01-12T02:24:43.651Z,7.34
2023-01-12T02:25:43.461Z,7.35
2023-01-12T02:26:43.382Z,7.30
2023-01-12T02:27:43.309Z,7.34
2023-01-12T02:28:43.224Z,7.35
2023-01-12T02:29:43.133Z,7.37
2023-01-12T02:30:43.045Z,7.35
2023-01-12T02:31:43.034Z,7.37
2023-01-12T02:32:42.884Z,7.37
2023-01-12T02:33:42.803Z,7.38
2023-01-12T02:34:42.715Z,7.37
2023-01-12T02:35:42.632Z,7.35
2023-01-12T02:36:42.547Z,7.24
2023-01-12T02:37:42.472Z,7.31
2023-01-12T02:38:42.396Z,7.20
2023-01-12T02:39:42.312Z,7.19
2023-01-12T02:40:42.221Z,7.16
2023-01-12T02:41:42.133Z,7.11
2023-01-12T02:42:42.057Z,7.08
2023-01-12T02:43:41.972Z,7.16
2023-01-12T02:44:41.883Z,7.17
2023-01-12T02:45:41.815Z,7.11
2023-01-12T02:46:41.779Z,7.17
2023-01-12T02:47:41.640Z,7.17
2023-01-12T02:48:41.559Z,7.16
2023-01-12T02:49:41.473Z,7.17
2023-01-12T02:50:41.392Z,7.17
2023-01-12T02:51:41.317Z,7.12
2023-01-12T02:52:41.226Z,7.08
2023-01-12T02:53:41.145Z,7.08
2023-01-12T02:54:41.071Z,7.03
2023-01-12T02:55:40.977Z,6.99
2023-01-12T02:56:40.902Z,6.94
2023-01-12T02:57:40.816Z,7.08
2023-01-12T02:58:40.736Z,6.96
2023-01-12T02:59:40.649Z,6.94
2023-01-12T03:00:40.609Z,7.01
2023-01-12T03:01:40.556Z,7.02
2023-01-12T03:02:40.448Z,6.93
2023-01-12T03:03:40.332Z,6.91
2023-01-12T03:04:40.242Z,6.98
2023-01-12T03:05:40.160Z,6.94
2023-01-12T03:06:40.097Z,6.96
2023-01-12T03:07:39.998Z,6.90
2023-01-12T03:08:39.898Z,6.83
2023-01-12T03:09:39.828Z,6.80
2023-01-12T03:10:39.749Z,6.81
2023-01-12T03:11:39.659Z,6.84
2023-01-12T03:12:39.566Z,6.69
2023-01-12T03:13:39.509Z,6.69
2023-01-12T03:14:39.410Z,6.73
2023-01-12T03:15:39.324Z,6.72
2023-01-12T03:16:39.237Z,6.75
2023-01-12T03:17:39.164Z,6.72
2023-01-12T03:18:39.081Z,6.84
2023-01-12T03:19:38.993Z,6.69
2023-01-12T03:20:38.917Z,6.69
2023-01-12T03:21:38.828Z,6.68
2023-01-12T03:22:38.758Z,6.70
2023-01-12T03:23:38.660Z,6.70
2023-01-12T03:24:38.582Z,6.62
2023-01-12T03:25:38.496Z,6.70
2023-01-12T03:26:38.418Z,6.63
2023-01-12T03:27:38.333Z,6.66
2023-01-12T03:28:38.251Z,6.66
2023-01-12T03:29:38.164Z,6.60
2023-01-12T03:30:38.115Z,6.65
2023-01-12T03:31:38.041Z,6.75
2023-01-12T03:32:37.930Z,6.66
2023-01-12T03:33:37.829Z,6.73
2023-01-12T03:34:37.749Z,6.75
2023-01-12T03:35:37.665Z,6.70
2023-01-12T03:36:37.593Z,6.70
2023-01-12T03:37:37.499Z,6.70
2023-01-12T03:38:37.421Z,6.70
2023-01-12T03:39:37.335Z,6.70
2023-01-12T03:40:37.256Z,6.66
2023-01-12T03:41:37.168Z,6.69
2023-01-12T03:42:37.086Z,6.68
2023-01-12T03:43:37.016Z,6.65
2023-01-12T03:44:36.917Z,6.66
2023-01-12T03:45:36.842Z,6.73
2023-01-12T03:46:36.785Z,6.57
2023-01-12T03:47:36.686Z,6.75
2023-01-12T03:48:36.583Z,6.66
2023-01-12T03:49:36.509Z,6.65
2023-01-12T03:50:36.422Z,6.68
2023-01-12T03:51:36.333Z,6.59
2023-01-12T03:52:36.251Z,6.63
2023-01-12T03:53:36.166Z,6.63
2023-01-12T03:54:36.085Z,6.60
2023-01-12T03:55:36.003Z,6.59
2023-01-12T03:56:35.916Z,6.59
2023-01-12T03:57:35.844Z,6.50
2023-01-12T03:58:35.804Z,6.54
2023-01-12T03:59:35.673Z,6.54
2023-01-12T04:00:35.588Z,6.54
2023-01-12T04:01:35.645Z,6.42
2023-01-12T04:02:35.422Z,6.42
2023-01-12T04:03:35.448Z,6.41
2023-01-12T04:04:35.259Z,6.44
2023-01-12T04:05:35.174Z,6.47
2023-01-12T04:06:35.095Z,6.42
2023-01-12T04:07:35.010Z,6.41
2023-01-12T04:08:34.928Z,6.27
2023-01-12T04:09:34.848Z,6.33
2023-01-12T04:10:34.754Z,6.29
2023-01-12T04:11:34.679Z,6.26
2023-01-12T04:12:34.591Z,6.11
2023-01-12T04:13:34.514Z,6.18
2023-01-12T04:14:34.426Z,6.18
2023-01-12T04:15:34.339Z,6.14
2023-01-12T04:16:34.334Z,6.15
2023-01-12T04:17:34.186Z,6.03
2023-01-12T04:18:34.090Z,6.07
2023-01-12T04:19:34.012Z,6.11
2023-01-12T04:20:33.928Z,6.04
2023-01-12T04:21:33.845Z,6.00
2023-01-12T04:22:33.764Z,5.93
2023-01-12T04:23:33.682Z,6.06
2023-01-12T04:24:33.589Z,5.92
2023-01-12T04:25:33.514Z,5.95
2023-01-12T04:26:33.429Z,6.07
2023-01-12T04:27:33.359Z,6.13
2023-01-12T04:28:33.259Z,6.08
2023-01-12T04:29:33.178Z,6.06
2023-01-12T04:30:33.099Z,6.08
2023-01-12T04:31:33.040Z,5.95
2023-01-12T04:32:32.928Z,5.92
2023-01-12T04:33:32.846Z,5.89
2023-01-12T04:34:32.757Z,5.99
2023-01-12T04:35:32.687Z,5.99
2023-01-12T04:36:32.594Z,5.96
2023-01-12T04:37:32.516Z,5.95
2023-01-12T04:38:32.427Z,6.00
2023-01-12T04:39:32.360Z,5.93
2023-01-12T04:40:32.261Z,5.93
2023-01-12T04:41:32.178Z,5.95
2023-01-12T04:42:32.090Z,5.89
2023-01-12T04:43:32.013Z,5.99
2023-01-12T04:44:31.926Z,5.90
2023-01-12T04:45:31.944Z,5.96
2023-01-12T04:46:31.833Z,5.88
2023-01-12T04:47:31.680Z,5.85
2023-01-12T04:48:31.593Z,5.81
2023-01-12T04:49:31.510Z,5.83
2023-01-12T04:50:31.440Z,5.80
2023-01-12T04:51:31.345Z,5.97
2023-01-12T04:52:31.267Z,5.96
2023-01-12T04:53:31.207Z,5.90
2023-01-12T04:54:31.101Z,5.90
2023-01-12T04:55:31.012Z,5.93
2023-01-12T04:56:30.934Z,5.96
2023-01-12T04:57:30.845Z,5.90
2023-01-12T04:58:30.762Z,5.89
2023-01-12T04:59:30.683Z,5.78
2023-01-12T05:00:30.602Z,5.89
2023-01-12T05:01:30.646Z,5.77
2023-01-12T05:02:30.436Z,5.80
2023-01-12T05:03:30.350Z,5.83
2023-01-12T05:04:30.309Z,5.88
2023-01-12T05:05:30.181Z,5.81
2023-01-12T05:06:30.112Z,5.85
2023-01-12T05:07:30.024Z,5.78
2023-01-12T05:08:29.926Z,5.72
2023-01-12T05:09:29.850Z,5.75
2023-01-12T05:10:29.765Z,5.74
2023-01-12T05:11:29.680Z,5.81
2023-01-12T05:12:29.596Z,5.81
2023-01-12T05:13:29.506Z,5.81
2023-01-12T05:14:29.428Z,5.80
2023-01-12T05:15:29.352Z,5.81
2023-01-12T05:16:29.285Z,5.88
2023-01-12T05:17:29.180Z,5.88
2023-01-12T05:18:29.100Z,5.85
2023-01-12T05:19:29.013Z,5.81
2023-01-12T05:20:28.940Z,5.72
2023-01-12T05:21:28.841Z,5.77
2023-01-12T05:22:28.776Z,5.81
2023-01-12T05:23:28.681Z,5.86
2023-01-12T05:24:28.596Z,5.78
2023-01-12T05:25:28.508Z,5.86
2023-01-12T05:26:28.428Z,5.85
2023-01-12T05:27:28.349Z,5.80
2023-01-12T05:28:28.261Z,5.81
2023-01-12T05:29:28.184Z,5.85
2023-01-12T05:30:29.977Z,5.96
2023-01-12T05:31:28.013Z,5.95
2023-01-12T05:32:27.929Z,5.93
2023-01-12T05:33:27.844Z,6.00
2023-01-12T05:34:27.754Z,6.08
2023-01-12T05:35:27.678Z,6.00
2023-01-12T05:36:27.591Z,6.07
2023-01-12T05:37:27.510Z,6.07
2023-01-12T05:38:27.428Z,6.06
2023-01-12T05:39:27.343Z,6.10
2023-01-12T05:40:27.256Z,6.11
2023-01-12T05:41:27.180Z,6.11
2023-01-12T05:42:27.088Z,6.08
2023-01-12T05:43:27.009Z,6.08
2023-01-12T05:44:26.921Z,6.07
2023-01-12T05:45:26.841Z,6.11
2023-01-12T05:46:26.801Z,6.11
2023-01-12T05:47:26.676Z,6.14
2023-01-12T05:48:26.588Z,6.17
2023-01-12T05:49:26.512Z,6.08
2023-01-12T05:50:26.429Z,6.15
2023-01-12T05:51:26.339Z,6.22
2023-01-12T05:52:26.261Z,6.14
2023-01-12T05:53:26.170Z,6.18
2023-01-12T05:54:26.086Z,6.21
2023-01-12T05:55:26.006Z,6.13
2023-01-12T05:56:26.089Z,6.21
2023-01-12T05:57:25.835Z,6.26
2023-01-12T05:58:25.751Z,6.21
2023-01-12T05:59:25.676Z,6.22
2023-01-12T06:00:25.587Z,6.22
2023-01-12T06:01:25.682Z,6.27
2023-01-12T06:02:25.458Z,6.24
2023-01-12T06:03:27.308Z,6.24
2023-01-12T06:04:25.362Z,6.32
2023-01-12T06:05:25.169Z,6.33
2023-01-12T06:06:25.092Z,6.30
2023-01-12T06:07:25.003Z,6.34
2023-01-12T06:08:24.930Z,6.34
2023-01-12T06:09:24.837Z,6.36
2023-01-12T06:10:24.754Z,6.36
2023-01-12T06:11:24.673Z,6.33
2023-01-12T06:12:24.579Z,6.44
2023-01-12T06:13:24.511Z,6.47
2023-01-12T06:14:24.423Z,6.44
2023-01-12T06:15:24.337Z,6.44
2023-01-12T06:16:24.251Z,6.45
2023-01-12T06:17:24.189Z,6.44
2023-01-12T06:18:24.081Z,6.47
2023-01-12T06:19:23.998Z,6.51
2023-01-12T06:20:23.919Z,6.65
2023-01-12T06:21:23.839Z,6.55
2023-01-12T06:22:23.775Z,6.68
2023-01-12T06:23:23.667Z,6.65
2023-01-12T06:24:23.583Z,6.57
2023-01-12T06:25:23.504Z,6.62
2023-01-12T06:26:23.417Z,6.63
2023-01-12T06:27:23.343Z,6.70
2023-01-12T06:28:23.254Z,6.66
2023-01-12T06:29:23.171Z,6.60
2023-01-12T06:30:23.080Z,6.72
2023-01-12T06:31:23.058Z,6.68
2023-01-12T06:32:22.912Z,6.69
2023-01-12T06:33:22.836Z,6.72
2023-01-12T06:34:22.753Z,6.70
2023-01-12T06:35:22.666Z,6.63
2023-01-12T06:36:22.586Z,6.70
2023-01-12T06:37:22.496Z,6.69
2023-01-12T06:38:22.428Z,6.73
2023-01-12T06:39:22.338Z,6.68
2023-01-12T06:40:22.259Z,6.73
2023-01-12T06:41:22.168Z,6.70
2023-01-12T06:42:22.084Z,6.70
2023-01-12T06:43:22.005Z,6.70
2023-01-12T06:44:21.919Z,6.70
2023-01-12T06:45:21.834Z,6.72
2023-01-12T06:46:21.794Z,6.76
2023-01-12T06:47:21.667Z,6.72
2023-01-12T06:48:21.579Z,6.76
2023-01-12T06:49:21.498Z,6.72
2023-01-12T06:50:21.424Z,6.68
2023-01-12T06:51:21.329Z,6.73
2023-01-12T06:52:21.244Z,6.70
2023-01-12T06:53:21.169Z,6.69
2023-01-12T06:54:21.250Z,6.66
2023-01-12T06:55:21.000Z,6.66
2023-01-12T06:56:20.929Z,6.66
2023-01-12T06:57:20.827Z,6.63
2023-01-12T06:58:20.749Z,6.70
2023-01-12T06:59:20.665Z,6.66
2023-01-12T07:00:20.591Z,6.52
2023-01-12T07:01:20.561Z,6.47
2023-01-12T07:02:20.418Z,6.48
2023-01-12T07:03:20.341Z,6.50
2023-01-12T07:04:20.306Z,6.44
2023-01-12T07:05:20.180Z,6.41
2023-01-12T07:06:20.080Z,6.50
2023-01-12T07:07:20.011Z,6.42
2023-01-12T07:08:19.917Z,6.45
2023-01-12T07:09:19.837Z,6.41
2023-01-12T07:10:19.761Z,6.44
2023-01-12T07:11:19.665Z,6.48
2023-01-12T07:12:19.588Z,6.48
2023-01-12T07:13:19.508Z,6.51
2023-01-12T07:14:19.418Z,6.60
2023-01-12T07:15:19.336Z,6.52
2023-01-12T07:16:19.376Z,6.47
2023-01-12T07:17:19.178Z,6.50
2023-01-12T07:18:19.082Z,6.54
2023-01-12T07:19:19.002Z,6.51
2023-01-12T07:20:18.916Z,6.55
2023-01-12T07:21:18.835Z,6.48
2023-01-12T07:22:18.749Z,6.51
2023-01-12T07:23:18.681Z,6.51
2023-01-12T07:24:18.585Z,6.55
2023-01-12T07:25:18.510Z,6.59
2023-01-12T07:26:18.423Z,6.54
2023-01-12T07:27:18.332Z,6.62
2023-01-12T07:28:18.246Z,6.57
2023-01-12T07:29:18.189Z,6.51
2023-01-12T07:30:18.087Z,6.51
2023-01-12T07:31:18.101Z,6.57
2023-01-12T07:32:17.920Z,6.55
2023-01-12T07:33:18.814Z,6.51
2023-01-12T07:34:17.762Z,6.62
2023-01-12T07:35:17.660Z,6.54
2023-01-12T07:36:17.589Z,6.48
2023-01-12T07:37:17.498Z,6.59
2023-01-12T07:38:17.412Z,6.59
2023-01-12T07:39:17.337Z,6.55
2023-01-12T07:40:17.272Z,6.63
2023-01-12T07:41:17.165Z,6.60
2023-01-12T07:42:17.099Z,6.62
2023-01-12T07:43:16.996Z,6.54
2023-01-12T07:44:16.920Z,6.52
2023-01-12T07:45:16.834Z,6.63
2023-01-12T07:46:16.788Z,6.52
2023-01-12T07:47:16.664Z,6.62
2023-01-12T07:48:16.600Z,6.55
2023-01-12T07:49:16.503Z,6.66
2023-01-12T07:50:16.423Z,6.63
2023-01-12T07:51:16.333Z,6.65
2023-01-12T07:52:16.245Z,6.66
2023-01-12T07:53:16.171Z,6.63
2023-01-12T07:54:16.085Z,6.60
2023-01-12T07:55:15.996Z,6.62
2023-01-12T07:56:15.917Z,6.66
2023-01-12T07:57:15.826Z,6.63
2023-01-12T07:58:15.753Z,6.63
2023-01-12T07:59:15.660Z,6.66
2023-01-12T08:00:15.605Z,6.59
2023-01-12T08:01:15.548Z,6.68
2023-01-12T08:02:15.451Z,6.66
2023-01-12T08:03:15.331Z,6.62
2023-01-12T08:04:15.250Z,6.65
2023-01-12T08:05:15.246Z,6.63
2023-01-12T08:06:15.080Z,6.75
2023-01-12T08:07:15.137Z,6.70
2023-01-12T08:08:14.915Z,6.63
2023-01-12T08:09:14.834Z,6.73
2023-01-12T08:10:14.756Z,6.80
2023-01-12T08:11:14.670Z,6.78
2023-01-12T08:12:14.577Z,6.84
2023-01-12T08:13:14.493Z,6.86
2023-01-12T08:14:14.562Z,6.93
2023-01-12T08:15:14.335Z,6.99
2023-01-12T08:16:14.307Z,6.99
2023-01-12T08:17:14.185Z,7.09
2023-01-12T08:18:14.080Z,7.20
2023-01-12T08:19:14.001Z,7.30
2023-01-12T08:20:13.928Z,7.34
2023-01-12T08:21:13.843Z,7.34
2023-01-12T08:22:13.759Z,7.38
2023-01-12T08:23:13.663Z,7.37
2023-01-12T08:24:13.591Z,7.37
2023-01-12T08:25:13.498Z,7.26
2023-01-12T08:26:13.424Z,7.37
2023-01-12T08:27:13.338Z,7.20
2023-01-12T08:28:13.249Z,7.23
2023-01-12T08:29:13.258Z,7.34
2023-01-12T08:30:13.097Z,7.31
2023-01-12T08:31:13.007Z,7.23
2023-01-12T08:32:12.920Z,7.23
2023-01-12T08:33:12.832Z,7.29
2023-01-12T08:34:12.751Z,7.35
2023-01-12T08:35:12.674Z,7.27
2023-01-12T08:37:12.501Z,7.34
2023-01-12T08:38:12.419Z,7.30
2023-01-12T08:39:12.333Z,7.39
2023-01-12T08:40:12.249Z,7.35
2023-01-12T08:41:12.172Z,7.35
2023-01-12T08:42:12.083Z,7.41
2023-01-12T08:43:12.001Z,7.42
2023-01-12T08:44:11.938Z,7.39
2023-01-12T08:45:11.836Z,7.47
2023-01-12T08:46:11.850Z,7.45
2023-01-12T08:47:11.672Z,7.52
2023-01-12T08:48:11.588Z,7.55
2023-01-12T08:49:11.578Z,7.56
2023-01-12T08:50:11.424Z,7.59
2023-01-12T08:51:11.342Z,7.62
2023-01-12T08:52:11.255Z,7.57
2023-01-12T08:53:11.171Z,7.55
2023-01-12T08:54:11.103Z,7.68
2023-01-12T08:55:11.002Z,7.55
2023-01-12T08:56:10.933Z,7.67
2023-01-12T08:57:10.838Z,7.70
2023-01-12T08:58:10.760Z,7.68
2023-01-12T08:59:10.672Z,7.82
2023-01-12T09:00:10.595Z,7.88
2023-01-12T09:01:10.699Z,7.82
2023-01-12T09:02:10.633Z,7.90
2023-01-12T09:03:10.356Z,7.93
2023-01-12T09:04:10.279Z,7.90
2023-01-12T09:05:10.177Z,7.88
2023-01-12T09:06:10.099Z,7.90
2023-01-12T09:07:10.018Z,7.90
2023-01-12T09:08:09.927Z,7.94
2023-01-12T09:09:09.841Z,7.94
2023-01-12T09:10:09.766Z,8.01
2023-01-12T09:11:09.677Z,7.94
2023-01-12T09:12:09.598Z,7.93
2023-01-12T09:13:09.516Z,7.94
2023-01-12T09:14:09.434Z,7.96
2023-01-12T09:15:09.349Z,7.91
2023-01-12T09:16:12.384Z,7.94
2023-01-12T09:17:09.194Z,7.93
2023-01-12T09:18:09.114Z,7.91
2023-01-12T09:19:09.024Z,7.99
2023-01-12T09:20:08.941Z,7.99
2023-01-12T09:21:08.978Z,7.91
2023-01-12T09:22:08.772Z,7.93
2023-01-12T09:23:08.683Z,7.99
2023-01-12T09:24:08.606Z,7.99
2023-01-12T09:25:08.525Z,7.96
2023-01-12T09:26:08.445Z,7.96
2023-01-12T09:27:08.357Z,8.07
2023-01-12T09:28:08.275Z,8.01
2023-01-12T09:29:08.188Z,8.01
2023-01-12T09:30:08.108Z,8.06
2023-01-12T09:31:08.023Z,8.06
2023-01-12T09:32:07.950Z,8.03
2023-01-12T09:33:07.856Z,8.09
2023-01-12T09:34:07.780Z,8.11
2023-01-12T09:35:07.694Z,8.07
2023-01-12T09:36:07.612Z,8.17
2023-01-12T09:37:07.537Z,8.19
2023-01-12T09:38:07.452Z,8.12
2023-01-12T09:39:09.904Z,8.15
2023-01-12T09:40:07.283Z,8.15
2023-01-12T09:41:07.199Z,8.11
2023-01-12T09:42:07.120Z,8.11
2023-01-12T09:43:07.040Z,8.18
2023-01-12T09:44:06.952Z,8.14
2023-01-12T09:45:06.867Z,8.15
2023-01-12T09:46:06.834Z,8.11
2023-01-12T09:47:06.701Z,8.09
2023-01-12T09:48:06.619Z,8.11
2023-01-12T09:49:06.538Z,8.06
2023-01-12T09:50:10.343Z,8.14
2023-01-12T09:51:06.376Z,8.07
2023-01-12T09:52:06.290Z,8.17
2023-01-12T09:53:06.205Z,8.11
2023-01-12T09:54:06.134Z,8.22
2023-01-12T09:55:06.044Z,8.15
2023-01-12T09:56:05.962Z,8.19
2023-01-12T09:57:05.895Z,8.19
2023-01-12T09:58:05.800Z,8.19
2023-01-12T09:59:05.714Z,8.15
2023-01-12T10:00:05.632Z,8.27
2023-01-12T10:01:05.583Z,8.25
2023-01-12T10:02:05.556Z,8.34
2023-01-12T10:03:05.481Z,8.25
2023-01-12T10:04:05.314Z,8.21
2023-01-12T10:05:05.215Z,8.32
2023-01-12T10:06:05.148Z,8.25
2023-01-12T10:07:05.054Z,8.21
2023-01-12T10:08:04.973Z,8.29
2023-01-12T10:09:04.900Z,8.15
2023-01-12T10:10:04.804Z,8.27
2023-01-12T10:11:04.718Z,8.32
2023-01-12T10:12:04.638Z,8.29
2023-01-12T10:13:04.558Z,8.27
2023-01-12T10:14:04.490Z,8.32
2023-01-12T10:15:04.388Z,8.27
2023-01-12T10:16:04.394Z,8.25
2023-01-12T10:17:04.229Z,8.27
2023-01-12T10:18:04.154Z,8.24
2023-01-12T10:19:04.060Z,8.22
2023-01-12T10:20:03.979Z,8.24
2023-01-12T10:21:03.895Z,8.34
2023-01-12T10:22:03.825Z,8.40
2023-01-12T10:23:03.729Z,8.39
2023-01-12T10:24:03.652Z,8.47
2023-01-12T10:25:03.564Z,8.37
2023-01-12T10:26:03.483Z,8.36
2023-01-12T10:27:03.402Z,8.36
2023-01-12T10:28:03.317Z,8.43
2023-01-12T10:29:03.237Z,8.44
2023-01-12T10:30:03.186Z,8.40
2023-01-12T10:31:03.071Z,8.44
2023-01-12T10:32:03.027Z,8.51
2023-01-12T10:33:02.904Z,8.37
2023-01-12T10:34:02.838Z,8.44
2023-01-12T10:35:02.750Z,8.58
2023-01-12T10:36:02.667Z,8.62
2023-01-12T10:37:02.573Z,8.60
2023-01-12T10:38:02.494Z,8.62
2023-01-12T10:39:02.418Z,8.62
2023-01-12T10:40:02.346Z,8.66
2023-01-12T10:41:02.250Z,8.72
2023-01-12T10:42:02.164Z,8.70
2023-01-12T10:43:04.171Z,8.69
2023-01-12T10:44:01.996Z,8.68
2023-01-12T10:45:01.919Z,8.77
2023-01-12T10:46:01.904Z,8.75
2023-01-12T10:47:01.751Z,8.80
2023-01-12T10:48:01.672Z,8.82
2023-01-12T10:49:01.584Z,8.84
2023-01-12T10:50:01.518Z,8.84
2023-01-12T10:51:01.428Z,8.98
2023-01-12T10:52:01.338Z,8.90
2023-01-12T10:53:01.268Z,9.03
2023-01-12T10:54:01.183Z,9.00
2023-01-12T10:55:01.093Z,9.02
2023-01-12T10:56:01.013Z,9.03
2023-01-12T10:57:00.928Z,9.05
2023-01-12T10:58:00.856Z,9.10
2023-01-12T10:59:00.780Z,9.09
2023-01-12T11:00:00.687Z,9.00
2023-01-12T11:01:00.767Z,9.10
2023-01-12T11:02:00.709Z,9.03
2023-01-12T11:03:00.518Z,9.09
2023-01-12T11:04:00.354Z,9.17
2023-01-12T11:05:00.273Z,9.16
2023-01-12T11:06:00.190Z,9.19
2023-01-12T11:07:00.110Z,9.17
2023-01-12T11:08:00.031Z,9.20
2023-01-12T11:08:59.945Z,9.28
2023-01-12T11:09:59.874Z,9.20
2023-01-12T11:10:59.780Z,9.16
2023-01-12T11:11:59.699Z,9.19
2023-01-12T11:12:59.611Z,9.32
2023-01-12T11:13:59.534Z,9.35
2023-01-12T11:14:59.453Z,9.38
2023-01-12T11:15:59.363Z,9.37
2023-01-12T11:16:59.328Z,9.42
2023-01-12T11:17:59.203Z,9.35
2023-01-12T11:18:59.125Z,9.40
2023-01-12T11:19:59.037Z,9.38
2023-01-12T11:20:58.956Z,9.43
2023-01-12T11:21:58.871Z,9.45
2023-01-12T11:22:58.799Z,9.50
2023-01-12T11:23:58.712Z,9.43
2023-01-12T11:24:58.640Z,9.37
2023-01-12T11:25:58.549Z,9.38
2023-01-12T11:26:58.464Z,9.40
2023-01-12T11:27:58.392Z,9.42
2023-01-12T11:28:58.305Z,9.37
2023-01-12T11:29:58.223Z,9.35
2023-01-12T11:30:58.185Z,9.37
2023-01-12T11:31:58.057Z,9.45
2023-01-12T11:32:57.976Z,9.37
2023-01-12T11:33:57.898Z,9.38
2023-01-12T11:34:57.812Z,9.34
2023-01-12T11:35:57.732Z,9.34
2023-01-12T11:36:57.645Z,9.37
2023-01-12T11:37:57.566Z,9.40
2023-01-12T11:38:57.482Z,9.43
2023-01-12T11:39:57.415Z,9.42
2023-01-12T11:40:57.324Z,9.40
2023-01-12T11:41:57.254Z,9.42
2023-01-12T11:42:57.158Z,9.43
2023-01-12T11:43:57.070Z,9.37
2023-01-12T11:44:56.992Z,9.37
2023-01-12T11:45:56.960Z,9.45
2023-01-12T11:46:56.846Z,9.46
2023-01-12T11:47:56.749Z,9.42
2023-01-12T11:48:56.664Z,9.40
2023-01-12T11:49:56.580Z,9.40
2023-01-12T11:50:56.504Z,9.40
2023-01-12T11:51:56.415Z,9.38
2023-01-12T11:52:56.355Z,9.38
2023-01-12T11:53:56.261Z,9.37
2023-01-12T11:54:56.182Z,9.42
2023-01-12T11:55:56.106Z,9.38
2023-01-12T11:56:56.013Z,9.46
2023-01-12T11:57:56.029Z,9.49
2023-01-12T11:58:55.841Z,9.42
2023-01-12T11:59:55.762Z,9.49
2023-01-12T12:00:55.736Z,9.56
2023-01-12T12:01:55.607Z,9.49
2023-01-12T12:02:55.517Z,9.65
2023-01-12T12:03:55.552Z,9.58
2023-01-12T12:04:55.351Z,9.60
2023-01-12T12:05:55.271Z,9.50
2023-01-12T12:06:55.193Z,9.50
2023-01-12T12:07:55.109Z,9.58
2023-01-12T12:08:55.029Z,9.55
2023-01-12T12:09:54.943Z,9.65
2023-01-12T12:10:54.866Z,9.63
2023-01-12T12:11:54.776Z,9.61
2023-01-12T12:12:54.701Z,9.58
2023-01-12T12:13:54.639Z,9.58
2023-01-12T12:14:54.543Z,9.70
2023-01-12T12:15:54.495Z,9.65
2023-01-12T12:16:54.371Z,9.61
2023-01-12T12:17:54.290Z,9.65
2023-01-12T12:18:54.209Z,9.64
2023-01-12T12:19:54.134Z,9.61
2023-01-12T12:20:54.045Z,9.68
2023-01-12T12:21:53.967Z,9.67
2023-01-12T12:22:53.881Z,9.58
2023-01-12T12:23:53.798Z,9.58
2023-01-12T12:24:53.717Z,9.61
2023-01-12T12:25:53.639Z,9.64
2023-01-12T12:26:53.556Z,9.61
2023-01-12T12:27:53.470Z,9.60
2023-01-12T12:28:53.389Z,9.61
2023-01-12T12:29:53.339Z,9.47
2023-01-12T12:30:53.258Z,9.65
2023-01-12T12:31:53.147Z,9.64
2023-01-12T12:32:53.120Z,9.68
2023-01-12T12:33:52.982Z,9.49
2023-01-12T12:34:52.905Z,9.61
2023-01-12T12:35:52.817Z,9.61
2023-01-12T12:36:52.737Z,9.58
2023-01-12T12:37:52.656Z,9.61
2023-01-12T12:38:52.581Z,9.55
2023-01-12T12:39:52.491Z,9.70
2023-01-12T12:40:52.417Z,9.64
2023-01-12T12:41:52.326Z,9.64
2023-01-12T12:42:52.246Z,9.72
2023-01-12T12:43:52.170Z,9.75
2023-01-12T12:44:52.084Z,9.78
2023-01-12T12:45:52.016Z,9.78
2023-01-12T12:46:51.923Z,9.80
2023-01-12T12:47:51.834Z,9.82
2023-01-12T12:48:51.772Z,9.79
2023-01-12T12:49:51.677Z,9.92
2023-01-12T12:50:51.596Z,9.82
2023-01-12T12:51:51.525Z,9.93
2023-01-12T12:52:51.430Z,10.03
2023-01-12T12:53:51.354Z,9.93
2023-01-12T12:54:51.271Z,10.01
2023-01-12T12:55:51.186Z,9.98
2023-01-12T12:56:51.102Z,9.98
2023-01-12T12:57:51.026Z,9.92
2023-01-12T12:58:50.950Z,9.89
2023-01-12T12:59:52.126Z,9.97
2023-01-12T13:00:50.899Z,10.06
2023-01-12T13:01:50.723Z,10.10
2023-01-12T13:02:50.659Z,10.15
2023-01-12T13:03:50.542Z,10.04
2023-01-12T13:04:50.454Z,10.08
2023-01-12T13:05:50.374Z,10.07
2023-01-12T13:06:50.315Z,10.06
2023-01-12T13:07:50.209Z,10.07
2023-01-12T13:08:50.127Z,10.08
2023-01-12T13:09:50.043Z,10.10
2023-01-12T13:10:49.964Z,10.11
2023-01-12T13:11:49.882Z,10.04
2023-01-12T13:12:49.799Z,10.13
2023-01-12T13:13:49.714Z,10.07
2023-01-12T13:14:49.638Z,10.07
2023-01-12T13:15:49.583Z,10.06
2023-01-12T13:16:49.476Z,10.08
2023-01-12T13:17:49.405Z,10.11